Time;durP1;ratioP1;P1;durP2;ratioP2;P2;SDS_P1;SDS_P2;PMS_P1;PMS_P2;Temp;Humidity;BMP_temperature;BMP_pressure;BME280_temperature;BME280_humidity;BME280_pressure;Samples;Min_cycle;Max_cycle;Signal;HPM_P1;HPM_P2
2023/10/16 00:00:30;;;;;;;2.27;2.17;;;23.10;44.20;;;;;;4984701;28;20491;-66
2023/10/16 00:03:00;;;;;;;2.80;2.60;;;23.10;44.30;;;;;;4987492;28;20477;-62
2023/10/16 00:05:38;;;;;;;3.13;2.83;;;23.10;44.20;;;;;;4985602;28;20464;-69
2023/10/16 00:08:07;;;;;;;2.53;2.33;;;23.10;44.30;;;;;;4992850;28;20995;-64
2023/10/16 00:10:35;;;;;;;2.80;2.50;;;23.10;45.10;;;;;;4997600;28;20540;-63
2023/10/16 00:13:10;;;;;;;2.40;2.30;;;23.00;44.20;;;;;;5004436;28;20957;-62
2023/10/16 00:15:40;;;;;;;2.40;2.30;;;23.00;44.20;;;;;;4998539;28;21096;-64
2023/10/16 00:18:13;;;;;;;3.10;2.90;;;23.00;44.20;;;;;;4983342;28;20636;-64
2023/10/16 00:20:40;;;;;;;2.43;2.33;;;23.00;44.30;;;;;;4995452;28;20475;-64
2023/10/16 00:23:10;;;;;;;2.07;1.97;;;23.10;44.40;;;;;;4997314;28;20547;-63
2023/10/16 00:25:38;;;;;;;2.23;2.13;;;23.00;44.30;;;;;;4993436;28;20483;-64
2023/10/16 00:28:07;;;;;;;2.50;2.30;;;23.00;44.30;;;;;;4982191;28;20461;-61
2023/10/16 00:30:33;;;;;;;3.03;2.83;;;23.00;45.10;;;;;;4985548;28;20500;-62
2023/10/16 00:32:59;;;;;;;2.50;2.30;;;23.00;44.30;;;;;;4987117;28;20480;-61
2023/10/16 00:35:24;;;;;;;2.07;1.97;;;23.00;44.30;;;;;;4984927;28;20461;-61
2023/10/16 00:37:50;;;;;;;1.90;1.80;;;23.00;44.30;;;;;;5002095;28;20230;-63
2023/10/16 00:40:31;;;;;;;2.10;2.00;;;23.00;44.30;;;;;;4983824;28;20242;-64
2023/10/16 00:42:59;;;;;;;2.03;1.90;;;23.00;44.30;;;;;;5000778;28;20218;-64
2023/10/16 00:45:24;;;;;;;2.90;2.70;;;23.00;44.30;;;;;;4987235;28;20456;-71
2023/10/16 00:47:50;;;;;;;2.10;2.00;;;23.00;44.40;;;;;;4983483;28;20803;-65
2023/10/16 00:50:18;;;;;;;2.07;1.87;;;23.00;44.30;;;;;;4987546;28;20231;-67
2023/10/16 00:52:43;;;;;;;2.53;2.33;;;23.00;44.40;;;;;;4986579;28;20219;-65
2023/10/16 00:55:11;;;;;;;1.80;1.70;;;23.00;44.30;;;;;;5001162;28;20524;-63
2023/10/16 00:57:42;;;;;;;1.87;1.77;;;23.00;44.30;;;;;;4988738;28;20594;-68
2023/10/16 01:00:12;;;;;;;2.03;1.90;;;23.00;44.40;;;;;;4987645;28;20511;-61
2023/10/16 01:02:40;;;;;;;2.10;2.00;;;23.00;44.40;;;;;;4987371;28;20474;-63
2023/10/16 01:05:07;;;;;;;1.90;1.80;;;23.00;44.40;;;;;;4985941;28;21087;-62
2023/10/16 01:07:33;;;;;;;2.00;1.90;;;23.00;44.30;;;;;;4993634;28;20546;-67
2023/10/16 01:09:59;;;;;;;2.10;2.00;;;23.00;44.40;;;;;;4997547;28;20563;-64
2023/10/16 01:12:25;;;;;;;2.40;2.30;;;23.00;44.30;;;;;;4993140;28;20326;-69
2023/10/16 01:14:51;;;;;;;2.43;2.33;;;23.00;44.40;;;;;;4989522;28;20465;-62
2023/10/16 01:17:29;;;;;;;1.90;1.80;;;23.00;44.40;;;;;;5002972;28;21391;-62
2023/10/16 01:19:56;;;;;;;2.00;1.90;;;23.00;44.40;;;;;;4990706;28;20251;-69
2023/10/16 01:22:22;;;;;;;1.93;1.83;;;23.00;44.40;;;;;;4991358;28;20468;-61
2023/10/16 01:24:48;;;;;;;2.00;1.90;;;23.00;44.40;;;;;;4987882;28;20896;-65
2023/10/16 01:27:26;;;;;;;2.07;1.60;;;23.00;44.40;;;;;;5003361;28;20494;-64
2023/10/16 01:29:57;;;;;;;4.60;1.90;;;23.00;44.40;;;;;;5003331;28;20263;-70
2023/10/16 01:32:22;;;;;;;1.90;1.80;;;23.00;44.40;;;;;;5008308;28;20468;-69
2023/10/16 01:34:48;;;;;;;1.87;1.77;;;23.00;44.40;;;;;;4995685;28;20757;-67
2023/10/16 01:37:17;;;;;;;2.37;2.17;;;23.00;44.40;;;;;;5003619;28;20585;-67
2023/10/16 01:39:53;;;;;;;1.80;1.70;;;23.00;44.40;;;;;;4987065;28;20259;-68
2023/10/16 01:42:19;;;;;;;2.00;1.90;;;22.90;44.40;;;;;;4992514;28;20469;-61
2023/10/16 01:44:45;;;;;;;1.80;1.70;;;23.00;44.40;;;;;;4996152;28;20460;-62
2023/10/16 01:47:15;;;;;;;1.80;1.70;;;22.90;44.40;;;;;;4993044;28;20289;-67
2023/10/16 01:49:45;;;;;;;1.70;1.60;;;22.90;44.30;;;;;;4991722;28;20551;-67
2023/10/16 01:52:11;;;;;;;1.80;1.70;;;22.90;44.40;;;;;;5007908;28;20448;-69
2023/10/16 01:54:44;;;;;;;1.80;1.70;;;22.90;44.40;;;;;;5006365;28;20474;-63
2023/10/16 01:57:10;;;;;;;1.67;1.57;;;23.00;45.20;;;;;;4990474;28;20449;-64
2023/10/16 01:59:49;;;;;;;1.80;1.70;;;22.90;44.40;;;;;;4996687;28;20475;-63
2023/10/16 02:02:14;;;;;;;1.80;1.70;;;22.90;44.30;;;;;;4988943;28;20228;-64
2023/10/16 02:04:40;;;;;;;1.90;1.60;;;22.90;44.40;;;;;;4988414;28;20452;-63
2023/10/16 02:07:06;;;;;;;1.60;1.50;;;22.90;44.40;;;;;;4986913;28;20796;-62
2023/10/16 02:09:36;;;;;;;1.80;1.70;;;22.90;44.40;;;;;;4987620;28;20542;-67
2023/10/16 02:12:05;;;;;;;1.50;1.40;;;22.90;44.40;;;;;;5003229;28;20464;-64
2023/10/16 02:14:31;;;;;;;1.63;1.53;;;22.90;44.40;;;;;;4987614;28;20519;-69
2023/10/16 02:16:57;;;;;;;1.70;1.60;;;22.90;44.40;;;;;;4992575;28;20464;-64
2023/10/16 02:19:24;;;;;;;1.67;1.53;;;22.90;44.50;;;;;;5004229;28;20243;-66
2023/10/16 02:21:53;;;;;;;1.60;1.50;;;22.90;44.50;;;;;;4984265;28;20587;-63
2023/10/16 02:24:19;;;;;;;1.60;1.50;;;22.90;44.40;;;;;;4987874;28;20715;-61
2023/10/16 02:26:56;;;;;;;1.50;1.40;;;22.90;44.50;;;;;;4986391;28;20964;-65
2023/10/16 02:29:28;;;;;;;1.53;1.43;;;22.90;44.50;;;;;;4990055;28;20571;-65
2023/10/16 02:31:54;;;;;;;1.50;1.40;;;22.90;44.50;;;;;;4985173;28;22203;-62
2023/10/16 02:34:23;;;;;;;2.23;1.60;;;22.90;44.40;;;;;;5000537;28;20522;-62
2023/10/16 02:36:54;;;;;;;1.50;1.40;;;22.90;44.50;;;;;;5002651;28;20224;-67
2023/10/16 02:39:35;;;;;;;1.60;1.50;;;22.90;44.50;;;;;;4986050;28;20529;-61
2023/10/16 02:42:12;;;;;;;1.40;1.30;;;22.90;44.50;;;;;;4986534;28;20467;-71
2023/10/16 02:44:45;;;;;;;1.77;1.40;;;22.90;44.40;;;;;;4984051;28;20467;-64
2023/10/16 02:47:26;;;;;;;1.30;1.20;;;22.90;44.50;;;;;;4995513;28;20455;-63
2023/10/16 02:49:53;;;;;;;1.60;1.50;;;22.90;44.50;;;;;;4992698;28;21237;-62
2023/10/16 02:52:19;;;;;;;1.47;1.37;;;22.90;44.50;;;;;;4984253;28;22604;-63
2023/10/16 02:54:46;;;;;;;1.70;1.60;;;22.90;44.50;;;;;;4997222;28;20469;-63
2023/10/16 02:57:12;;;;;;;1.50;1.40;;;22.90;44.50;;;;;;4982958;28;20457;-68
2023/10/16 02:59:38;;;;;;;1.30;1.20;;;22.90;44.50;;;;;;4991578;28;20522;-63
2023/10/16 03:02:13;;;;;;;1.40;1.30;;;22.90;44.50;;;;;;4987665;28;21039;-67
2023/10/16 03:04:40;;;;;;;1.40;1.30;;;22.90;44.40;;;;;;4984760;28;20499;-61
2023/10/16 03:07:06;;;;;;;1.50;1.40;;;22.90;44.50;;;;;;4994733;28;21349;-61
2023/10/16 03:09:35;;;;;;;1.57;1.47;;;22.90;44.50;;;;;;4994704;28;20476;-67
2023/10/16 03:12:10;;;;;;;1.33;1.23;;;22.90;44.50;;;;;;4994012;28;20591;-68
2023/10/16 03:14:45;;;;;;;1.60;1.30;;;22.90;44.50;;;;;;4990713;28;20459;-69
2023/10/16 03:17:22;;;;;;;1.30;1.20;;;22.90;44.50;;;;;;4985874;28;20948;-65
2023/10/16 03:19:48;;;;;;;1.40;1.30;;;22.90;44.50;;;;;;4986224;28;20481;-61
2023/10/16 03:22:15;;;;;;;1.30;1.20;;;22.80;44.30;;;;;;4987894;28;20585;-69
2023/10/16 03:24:42;;;;;;;1.50;1.40;;;22.90;44.50;;;;;;4985315;28;20456;-65
2023/10/16 03:27:08;;;;;;;1.40;1.30;;;22.90;44.60;;;;;;5014628;28;20485;-65
2023/10/16 03:29:35;;;;;;;1.50;1.40;;;22.90;44.50;;;;;;4985166;28;20919;-63
2023/10/16 03:32:02;;;;;;;1.40;1.30;;;22.90;44.50;;;;;;5000095;28;20242;-64
2023/10/16 03:34:28;;;;;;;1.10;1.00;;;22.80;44.30;;;;;;4984205;28;20472;-64
2023/10/16 03:37:01;;;;;;;1.40;1.30;;;22.80;44.30;;;;;;4986041;28;20825;-64
2023/10/16 03:39:26;;;;;;;1.37;1.27;;;22.80;44.30;;;;;;4983976;28;21116;-68
2023/10/16 03:41:52;;;;;;;1.80;1.70;;;22.80;44.30;;;;;;4988016;28;20820;-64
2023/10/16 03:44:21;;;;;;;1.60;1.50;;;22.80;44.30;;;;;;4984356;28;20791;-61
2023/10/16 03:46:49;;;;;;;1.50;1.40;;;22.80;44.30;;;;;;4986873;28;20270;-67
2023/10/16 03:49:15;;;;;;;1.30;1.20;;;22.80;44.40;;;;;;5010132;28;20968;-67
2023/10/16 03:51:41;;;;;;;2.27;2.07;;;22.80;44.40;;;;;;4984138;28;20465;-62
2023/10/16 03:54:06;;;;;;;1.30;1.20;;;22.80;44.40;;;;;;4982346;28;20473;-70
2023/10/16 03:56:32;;;;;;;1.40;1.30;;;22.80;45.10;;;;;;4982647;28;20255;-70
2023/10/16 03:58:57;;;;;;;1.30;1.20;;;22.80;44.50;;;;;;4983590;28;20668;-61
2023/10/16 04:01:27;;;;;;;1.43;1.33;;;22.80;44.50;;;;;;4988448;28;20311;-64
2023/10/16 04:04:03;;;;;;;1.47;1.37;;;22.80;44.40;;;;;;4998142;28;20227;-64
2023/10/16 04:06:30;;;;;;;1.40;1.30;;;22.80;44.40;;;;;;4985901;28;20465;-64
2023/10/16 04:08:58;;;;;;;1.10;1.00;;;22.80;44.40;;;;;;4983649;28;20465;-68
2023/10/16 04:11:24;;;;;;;1.20;1.10;;;22.80;44.50;;;;;;4987566;28;20584;-62
2023/10/16 04:13:52;;;;;;;1.50;1.40;;;22.80;44.40;;;;;;4989415;28;20462;-62
2023/10/16 04:19:52;;;;;;;1.30;1.10;;;22.90;44.50;;;;;;4981312;28;20619;-67
2023/10/16 04:21:57;;;;;;;1.30;1.20;;;22.90;44.40;;;;;;4979663;28;20481;-64
2023/10/16 04:29:34;;;;;;;1.20;1.10;;;22.90;44.30;;;;;;4992781;28;20472;-62
2023/10/16 04:34:32;;;;;;;1.17;1.07;;;22.90;45.10;;;;;;4981523;28;20469;-69
2023/10/16 04:50:37;;;;;;;1.33;1.10;;;22.90;44.30;;;;;;4985501;28;20551;-63
2023/10/16 04:53:07;;;;;;;1.10;1.00;;;22.90;44.20;;;;;;5002074;28;21164;-70
2023/10/16 05:03:35;;;;;;;1.20;1.10;;;22.90;44.20;;;;;;4979587;28;20465;-67
2023/10/16 05:16:48;;;;;;;1.30;1.20;;;22.90;44.20;;;;;;4987741;28;20464;-65
2023/10/16 06:14:09;;;;;;;2.47;1.40;;;22.90;44.20;;;;;;4987394;28;20468;-63
2023/10/16 06:14:16;;;;;;;1.60;1.50;;;22.70;41.20;;;;;;5004389;28;20746;-64
2023/10/16 06:16:47;;;;;;;2.30;1.60;;;22.70;41.10;;;;;;5003574;28;21355;-66
2023/10/16 06:19:21;;;;;;;1.50;1.40;;;22.70;41.00;;;;;;5008227;28;20475;-64
2023/10/16 06:22:06;;;;;;;1.60;1.50;;;22.70;40.80;;;;;;5004743;28;20469;-60
2023/10/16 06:27:10;;;;;;;1.30;1.20;;;22.70;40.70;;;;;;4989351;28;20461;-62
2023/10/16 06:29:41;;;;;;;2.20;1.50;;;22.70;40.60;;;;;;4989623;28;20904;-64
2023/10/16 06:32:18;;;;;;;2.30;1.50;;;22.70;40.50;;;;;;4989746;28;20476;-67
2023/10/16 06:35:05;;;;;;;3.73;1.53;;;22.70;40.50;;;;;;4989689;28;20801;-65
2023/10/16 06:37:35;;;;;;;3.67;1.57;;;22.70;40.50;;;;;;4992396;28;20477;-69
2023/10/16 06:40:01;;;;;;;1.70;1.60;;;22.70;40.40;;;;;;5007395;28;20629;-66
2023/10/16 06:42:30;;;;;;;1.53;1.40;;;22.70;40.40;;;;;;5003106;28;20552;-64
2023/10/16 06:44:57;;;;;;;1.50;1.40;;;22.70;40.30;;;;;;4988757;28;20462;-63
2023/10/16 06:47:35;;;;;;;2.03;1.10;;;22.70;40.20;;;;;;4986017;28;20471;-62
2023/10/16 06:52:53;;;;;;;1.57;1.47;;;22.70;40.10;;;;;;4989756;28;20462;-62
2023/10/16 06:55:21;;;;;;;1.50;1.40;;;22.70;40.10;;;;;;4985158;28;20473;-62
2023/10/16 06:57:47;;;;;;;1.67;1.30;;;22.70;40.10;;;;;;4998944;28;20463;-61
2023/10/16 07:00:24;;;;;;;1.40;1.30;;;22.70;40.10;;;;;;4984578;28;20496;-64
2023/10/16 07:02:54;;;;;;;1.60;1.50;;;22.70;40.00;;;;;;4987835;28;22489;-64
2023/10/16 07:05:41;;;;;;;1.30;1.17;;;22.70;40.00;;;;;;4986289;28;20996;-61
2023/10/16 07:08:10;;;;;;;1.40;1.30;;;22.70;40.00;;;;;;4999865;28;20470;-62
2023/10/16 07:10:40;;;;;;;1.30;1.20;;;22.70;40.00;;;;;;4989731;28;20457;-69
2023/10/16 07:13:09;;;;;;;1.40;1.30;;;22.70;39.80;;;;;;4983103;28;20477;-61
2023/10/16 07:15:35;;;;;;;1.93;1.20;;;22.70;39.80;;;;;;4982151;28;20541;-61
2023/10/16 07:18:13;;;;;;;1.30;1.20;;;22.70;39.80;;;;;;4983394;28;20485;-61
2023/10/16 07:23:24;;;;;;;1.40;1.30;;;22.70;39.70;;;;;;4979413;28;20479;-64
2023/10/16 07:25:57;;;;;;;1.30;1.20;;;22.70;39.70;;;;;;4989716;28;20481;-66
2023/10/16 07:28:24;;;;;;;1.10;1.00;;;22.70;39.80;;;;;;4985661;28;21052;-65
2023/10/16 07:30:50;;;;;;;1.50;1.37;;;22.70;39.70;;;;;;4989003;28;20480;-64
2023/10/16 07:33:15;;;;;;;1.37;1.27;;;22.70;39.70;;;;;;4988208;28;20457;-66
2023/10/16 07:35:45;;;;;;;2.70;1.17;;;22.70;39.70;;;;;;4981170;28;20503;-64
2023/10/16 07:38:12;;;;;;;2.50;1.37;;;22.70;39.90;;;;;;4997849;28;21177;-68
2023/10/16 07:40:38;;;;;;;2.57;1.40;;;22.70;39.70;;;;;;4984955;28;20472;-66
2023/10/16 07:43:05;;;;;;;1.63;1.30;;;22.70;39.70;;;;;;4986450;28;20469;-64
2023/10/16 07:45:32;;;;;;;1.20;1.10;;;22.70;39.70;;;;;;4991115;28;20357;-61
2023/10/16 07:48:07;;;;;;;1.40;1.30;;;22.70;39.70;;;;;;4989728;28;20466;-62
2023/10/16 07:50:38;;;;;;;1.40;1.30;;;22.70;39.70;;;;;;4986787;28;20471;-62
2023/10/16 07:53:04;;;;;;;1.30;1.20;;;22.70;39.60;;;;;;4987825;28;20465;-61
2023/10/16 07:55:39;;;;;;;1.30;1.20;;;22.70;39.60;;;;;;4998968;28;20558;-62
2023/10/16 07:58:15;;;;;;;1.47;1.37;;;22.70;39.60;;;;;;4984596;28;20988;-66
2023/10/16 08:00:42;;;;;;;1.73;1.40;;;22.70;39.60;;;;;;4984507;28;20453;-61
2023/10/16 08:03:13;;;;;;;1.30;1.20;;;22.70;39.60;;;;;;4983863;28;20466;-65
2023/10/16 08:05:47;;;;;;;1.43;1.33;;;22.70;39.60;;;;;;4982699;28;20460;-63
2023/10/16 08:08:13;;;;;;;1.30;1.20;;;22.70;39.60;;;;;;4985065;28;20461;-62
2023/10/16 08:10:41;;;;;;;1.30;1.20;;;22.70;39.60;;;;;;4985190;28;20572;-63
2023/10/16 08:13:13;;;;;;;1.40;1.30;;;22.70;39.60;;;;;;4983125;28;20472;-63
2023/10/16 08:15:44;;;;;;;1.33;1.23;;;22.70;39.60;;;;;;4983640;28;20484;-63
2023/10/16 08:18:12;;;;;;;1.50;1.40;;;22.70;39.60;;;;;;4982280;28;20448;-61
2023/10/16 08:20:50;;;;;;;1.10;1.00;;;22.70;39.60;;;;;;4983129;28;20491;-61
2023/10/16 08:23:16;;;;;;;1.30;1.20;;;22.70;39.60;;;;;;4990488;28;20460;-62
2023/10/16 08:25:42;;;;;;;1.20;1.10;;;22.70;39.60;;;;;;4986255;28;20479;-64
2023/10/16 08:28:20;;;;;;;1.30;1.20;;;22.70;39.70;;;;;;5001514;28;22283;-62
2023/10/16 08:33:16;;;;;;;1.27;1.17;;;22.70;39.60;;;;;;4987624;28;20473;-67
2023/10/16 08:35:42;;;;;;;1.30;1.20;;;22.70;39.60;;;;;;4993446;28;20507;-65
2023/10/16 08:38:20;;;;;;;1.83;1.33;;;22.70;39.60;;;;;;4981554;28;20976;-63
2023/10/16 08:40:57;;;;;;;1.23;1.13;;;22.70;39.60;;;;;;5004497;28;20245;-61
2023/10/16 08:43:39;;;;;;;2.30;1.20;;;22.70;39.60;;;;;;4981325;28;20567;-67
2023/10/16 08:46:10;;;;;;;1.07;0.97;;;22.70;39.60;;;;;;4984202;28;21091;-66
2023/10/16 08:48:36;;;;;;;1.30;1.20;;;22.70;39.60;;;;;;4986602;28;20466;-65
2023/10/16 08:51:08;;;;;;;1.20;1.10;;;22.70;39.60;;;;;;4991204;28;20881;-65
2023/10/16 08:53:34;;;;;;;1.20;1.10;;;22.70;40.40;;;;;;4984416;28;20234;-67
2023/10/16 08:56:08;;;;;;;1.40;1.30;;;22.70;39.60;;;;;;4985914;28;20460;-62
2023/10/16 08:58:41;;;;;;;1.10;1.00;;;22.70;39.60;;;;;;4987347;28;20324;-66
2023/10/16 09:01:11;;;;;;;1.50;1.40;;;22.70;39.60;;;;;;4981187;28;20476;-62
2023/10/16 09:03:44;;;;;;;1.20;1.10;;;22.70;39.60;;;;;;4999470;28;20860;-61
2023/10/16 09:06:13;;;;;;;1.30;1.20;;;22.70;39.60;;;;;;4988160;28;20555;-65
2023/10/16 09:08:41;;;;;;;1.30;1.20;;;22.70;39.60;;;;;;4981096;28;20591;-63
2023/10/16 09:11:08;;;;;;;3.07;1.10;;;22.70;39.60;;;;;;4984551;28;20505;-61
2023/10/16 09:13:35;;;;;;;1.20;1.10;;;22.70;39.60;;;;;;4993697;28;20465;-62
2023/10/16 09:16:14;;;;;;;1.30;1.20;;;22.70;39.70;;;;;;5005577;28;23101;-62
2023/10/16 09:18:40;;;;;;;1.27;1.17;;;22.70;39.70;;;;;;4987278;28;20484;-61
2023/10/16 09:21:22;;;;;;;1.17;1.07;;;22.70;39.70;;;;;;4998974;28;20563;-65
2023/10/16 09:23:51;;;;;;;1.40;1.30;;;22.70;39.60;;;;;;4991484;28;20268;-64
2023/10/16 09:26:17;;;;;;;1.30;1.10;;;22.70;39.70;;;;;;4988760;28;20474;-68
2023/10/16 09:28:47;;;;;;;1.20;1.10;;;22.70;39.70;;;;;;4984913;28;20463;-67
2023/10/16 09:31:18;;;;;;;1.30;1.20;;;22.70;39.70;;;;;;4989151;28;20591;-63
2023/10/16 09:33:45;;;;;;;1.40;1.27;;;22.70;39.70;;;;;;4992654;28;20489;-63
2023/10/16 09:36:19;;;;;;;1.10;1.00;;;22.70;39.70;;;;;;4991200;28;20615;-61
2023/10/16 09:38:46;;;;;;;1.20;1.10;;;22.70;39.70;;;;;;4994408;28;20475;-65
2023/10/16 09:43:56;;;;;;;1.30;1.20;;;22.70;39.70;;;;;;4988586;28;20467;-62
2023/10/16 09:49:09;;;;;;;1.30;1.20;;;22.70;39.70;;;;;;4996156;28;20543;-67
2023/10/16 09:51:35;;;;;;;1.23;1.13;;;22.70;39.70;;;;;;4993413;28;21060;-63
2023/10/16 09:54:04;;;;;;;1.20;1.10;;;22.70;39.70;;;;;;4987411;28;20654;-66
2023/10/16 09:56:39;;;;;;;1.20;1.10;;;22.70;39.80;;;;;;4987086;28;20466;-66
2023/10/16 09:59:12;;;;;;;1.47;1.37;;;22.70;39.70;;;;;;4985931;28;20479;-66
2023/10/16 10:01:42;;;;;;;1.30;1.20;;;22.70;39.80;;;;;;4985931;28;20986;-62
2023/10/16 10:04:11;;;;;;;1.30;1.20;;;22.70;40.20;;;;;;4989557;28;20465;-63
2023/10/16 10:06:42;;;;;;;1.20;1.10;;;22.70;39.80;;;;;;4986524;28;20549;-62
2023/10/16 10:12:14;;;;;;;1.23;1.13;;;22.70;39.80;;;;;;4988538;28;20488;-63
2023/10/16 10:14:48;;;;;;;1.17;1.07;;;22.80;39.90;;;;;;4989287;28;20464;-63
2023/10/16 10:17:25;;;;;;;1.30;1.20;;;22.80;39.90;;;;;;4983584;28;20496;-64
2023/10/16 10:19:55;;;;;;;1.27;1.17;;;22.70;39.90;;;;;;5003603;28;20479;-64
2023/10/16 10:22:32;;;;;;;2.10;1.13;;;22.80;39.90;;;;;;4993298;28;20472;-66
2023/10/16 10:25:35;;;;;;;1.20;1.10;;;22.80;40.00;;;;;;4983019;28;20480;-64
2023/10/16 10:28:09;;;;;;;1.30;1.20;;;22.80;40.00;;;;;;4988223;28;20604;-63
2023/10/16 10:30:39;;;;;;;1.30;1.20;;;22.80;40.00;;;;;;5009834;28;20535;-61
2023/10/16 10:33:06;;;;;;;0.93;0.90;;;22.80;40.00;;;;;;4997737;28;20471;-64
2023/10/16 10:35:43;;;;;;;1.30;1.20;;;22.80;40.10;;;;;;4986999;28;20484;-65
2023/10/16 10:38:21;;;;;;;1.40;1.30;;;22.80;40.00;;;;;;4984349;28;20498;-62
2023/10/16 10:41:11;;;;;;;1.10;1.00;;;22.80;40.00;;;;;;4983172;28;20474;-64
2023/10/16 10:43:58;;;;;;;1.40;1.20;;;22.80;40.00;;;;;;4991056;28;20547;-61
2023/10/16 10:46:25;;;;;;;1.63;1.50;;;22.80;40.00;;;;;;4982670;28;20521;-62
2023/10/16 10:48:54;;;;;;;1.40;1.30;;;22.80;40.10;;;;;;4991316;28;20473;-64
2023/10/16 10:51:21;;;;;;;1.57;1.47;;;22.80;40.10;;;;;;4985891;28;20462;-62
2023/10/16 10:53:57;;;;;;;1.40;1.30;;;22.80;40.10;;;;;;4983757;28;20469;-60
2023/10/16 10:56:40;;;;;;;1.30;1.20;;;22.80;40.10;;;;;;4988184;28;20571;-65
2023/10/16 10:59:09;;;;;;;1.10;1.00;;;22.80;40.10;;;;;;4985907;28;20492;-65
2023/10/16 11:02:52;;;;;;;1.27;1.17;;;22.80;40.10;;;;;;5004682;28;20467;-60
2023/10/16 11:04:33;;;;;;;1.27;1.17;;;22.80;40.20;;;;;;4988614;28;20526;-67
2023/10/16 11:07:11;;;;;;;1.57;1.47;;;22.80;40.30;;;;;;5001647;28;20457;-66
2023/10/16 11:09:37;;;;;;;1.40;1.30;;;22.80;40.20;;;;;;4995585;28;20468;-64
2023/10/16 11:12:03;;;;;;;1.40;1.30;;;22.80;40.20;;;;;;4987132;28;20462;-61
2023/10/16 11:14:36;;;;;;;1.30;1.20;;;22.80;40.20;;;;;;4984654;28;20702;-67
2023/10/16 11:17:05;;;;;;;1.50;1.40;;;22.80;40.20;;;;;;4994653;28;20473;-64
2023/10/16 11:19:50;;;;;;;1.30;1.20;;;22.80;40.20;;;;;;4985665;28;20571;-65
2023/10/16 11:22:23;;;;;;;1.37;1.27;;;22.80;40.20;;;;;;4993232;28;21163;-62
2023/10/16 11:24:51;;;;;;;1.37;1.27;;;22.80;40.20;;;;;;4991776;28;20480;-66
2023/10/16 11:27:17;;;;;;;1.43;1.33;;;22.80;40.30;;;;;;4983984;28;20469;-67
2023/10/16 11:29:46;;;;;;;1.40;1.30;;;22.80;40.20;;;;;;5017486;28;20472;-61
2023/10/16 11:32:14;;;;;;;1.40;1.30;;;22.80;40.20;;;;;;4984159;28;20613;-68
2023/10/16 11:34:49;;;;;;;1.40;1.30;;;22.80;40.20;;;;;;4982537;28;20500;-65
2023/10/16 11:37:21;;;;;;;1.30;1.20;;;22.80;40.20;;;;;;4983303;28;20519;-65
2023/10/16 11:39:48;;;;;;;1.20;1.10;;;22.80;40.20;;;;;;4982422;28;20572;-63
2023/10/16 11:42:14;;;;;;;1.40;1.30;;;22.80;40.30;;;;;;4997073;28;20455;-67
2023/10/16 11:44:41;;;;;;;1.50;1.40;;;22.80;40.30;;;;;;4991549;28;20818;-64
2023/10/16 11:47:18;;;;;;;1.30;1.20;;;22.80;40.30;;;;;;4986263;28;21038;-65
2023/10/16 11:49:55;;;;;;;1.30;1.20;;;22.80;40.30;;;;;;4982071;28;20465;-66
2023/10/16 11:52:22;;;;;;;1.37;1.27;;;22.80;40.20;;;;;;4983483;28;20464;-61
2023/10/16 11:54:57;;;;;;;1.30;1.20;;;22.80;40.30;;;;;;4989633;28;20465;-66
2023/10/16 11:57:24;;;;;;;1.30;1.20;;;22.80;40.30;;;;;;4987550;28;20495;-67
2023/10/16 11:59:51;;;;;;;1.20;1.10;;;22.80;40.30;;;;;;4985245;28;20681;-62
2023/10/16 12:02:19;;;;;;;1.30;1.20;;;22.80;40.30;;;;;;4991989;28;20453;-62
2023/10/16 12:04:44;;;;;;;1.40;1.30;;;22.80;40.40;;;;;;4990747;28;20458;-63
2023/10/16 12:07:14;;;;;;;1.30;1.20;;;22.80;40.40;;;;;;4989059;28;20441;-64
2023/10/16 12:09:47;;;;;;;1.37;1.27;;;22.80;40.40;;;;;;4985027;28;20238;-66
2023/10/16 12:12:19;;;;;;;1.30;1.20;;;22.80;40.40;;;;;;4984060;28;20449;-60
2023/10/16 12:14:48;;;;;;;2.33;1.93;;;22.80;40.30;;;;;;4984694;28;20530;-62
2023/10/16 12:17:15;;;;;;;1.37;1.27;;;22.80;40.50;;;;;;4985989;28;20482;-66
2023/10/16 12:19:41;;;;;;;1.63;1.53;;;22.80;40.50;;;;;;4987359;28;20460;-61
2023/10/16 12:22:08;;;;;;;1.43;1.30;;;22.80;40.50;;;;;;4986371;28;21493;-61
2023/10/16 12:24:34;;;;;;;1.40;1.30;;;22.80;41.20;;;;;;4988401;28;20227;-63
2023/10/16 12:27:01;;;;;;;1.70;1.60;;;22.80;40.40;;;;;;4995261;28;20461;-67
2023/10/16 12:29:27;;;;;;;1.53;1.43;;;22.80;40.50;;;;;;4982349;28;20227;-66
2023/10/16 12:31:54;;;;;;;1.30;1.20;;;22.80;40.50;;;;;;4996494;28;20985;-64
2023/10/16 12:34:22;;;;;;;1.50;1.40;;;22.80;40.50;;;;;;4983601;28;20224;-61
2023/10/16 12:36:49;;;;;;;1.30;1.20;;;22.80;41.30;;;;;;4984114;28;20512;-67
2023/10/16 12:39:24;;;;;;;1.27;1.17;;;22.80;40.50;;;;;;4984551;28;20461;-60
2023/10/16 12:41:57;;;;;;;1.20;1.10;;;22.80;40.60;;;;;;4983264;28;20797;-66
2023/10/16 12:44:26;;;;;;;1.60;1.50;;;22.80;40.60;;;;;;4991152;28;20469;-66
2023/10/16 12:46:53;;;;;;;1.30;1.20;;;22.80;40.60;;;;;;4993517;28;20464;-60
2023/10/16 12:49:20;;;;;;;1.33;1.23;;;22.80;40.60;;;;;;4980795;28;20489;-65
2023/10/16 12:51:46;;;;;;;1.30;1.20;;;22.80;40.60;;;;;;4982741;28;20846;-63
2023/10/16 12:54:12;;;;;;;1.30;1.20;;;22.80;40.60;;;;;;4979365;28;21195;-65
2023/10/16 12:56:41;;;;;;;1.20;1.10;;;22.80;40.60;;;;;;4987987;28;20304;-62
2023/10/16 12:59:08;;;;;;;1.50;1.40;;;22.80;40.60;;;;;;4986824;28;20483;-64
2023/10/16 13:01:36;;;;;;;1.40;1.30;;;22.80;40.50;;;;;;4985095;28;20492;-65
2023/10/16 13:04:03;;;;;;;1.40;1.30;;;22.80;40.60;;;;;;4981050;28;20495;-62
2023/10/16 13:06:30;;;;;;;1.30;1.20;;;22.80;40.60;;;;;;4983672;28;20461;-65
2023/10/16 13:09:03;;;;;;;1.30;1.20;;;22.80;40.60;;;;;;4982437;28;20477;-61
2023/10/16 13:11:28;;;;;;;1.40;1.30;;;22.80;40.60;;;;;;4981586;28;20480;-62
2023/10/16 13:13:55;;;;;;;1.30;1.20;;;22.80;40.60;;;;;;4983733;28;20465;-62
2023/10/16 13:16:24;;;;;;;1.50;1.40;;;22.80;40.60;;;;;;4979013;28;20223;-60
2023/10/16 13:18:57;;;;;;;1.30;1.20;;;22.80;40.60;;;;;;4978761;28;20508;-65
2023/10/16 13:21:32;;;;;;;1.83;1.73;;;22.80;40.60;;;;;;4983607;28;20480;-61
2023/10/16 13:24:04;;;;;;;1.33;1.23;;;22.80;40.70;;;;;;4977954;28;20516;-64
2023/10/16 13:26:31;;;;;;;1.43;1.33;;;22.80;40.70;;;;;;4984803;28;20461;-61
2023/10/16 13:28:57;;;;;;;1.50;1.40;;;22.80;40.60;;;;;;4981236;28;20450;-68
2023/10/16 13:31:23;;;;;;;1.30;1.20;;;22.80;40.60;;;;;;4985878;28;20529;-65
2023/10/16 13:33:50;;;;;;;1.50;1.40;;;22.80;40.70;;;;;;4983074;28;20231;-63
2023/10/16 13:36:17;;;;;;;1.57;1.23;;;22.80;40.60;;;;;;4980683;28;20220;-60
2023/10/16 13:38:44;;;;;;;1.50;1.40;;;22.80;40.60;;;;;;4984288;28;20477;-64
2023/10/16 13:41:19;;;;;;;1.00;1.00;;;22.80;40.60;;;;;;4982348;28;20465;-61
2023/10/16 13:43:46;;;;;;;1.50;1.40;;;22.80;40.60;;;;;;4986656;28;20545;-63
2023/10/16 13:46:13;;;;;;;1.23;1.13;;;22.80;40.60;;;;;;5003326;28;20452;-64
2023/10/16 13:48:45;;;;;;;1.60;1.50;;;22.80;40.60;;;;;;4996485;28;20521;-64
2023/10/16 13:51:16;;;;;;;1.40;1.30;;;22.80;40.70;;;;;;4995541;28;20449;-61
2023/10/16 13:53:42;;;;;;;1.33;1.23;;;22.80;40.70;;;;;;4980251;28;20511;-62
2023/10/16 13:56:09;;;;;;;1.20;1.10;;;22.80;40.70;;;;;;4981043;28;20556;-68
2023/10/16 13:58:35;;;;;;;1.47;1.37;;;22.80;40.70;;;;;;4984322;28;20464;-64
2023/10/16 14:01:01;;;;;;;1.40;1.30;;;22.80;40.70;;;;;;4996587;28;20484;-68
2023/10/16 14:03:27;;;;;;;1.40;1.30;;;22.80;40.70;;;;;;4985478;28;20254;-62
2023/10/16 14:05:54;;;;;;;1.30;1.20;;;22.80;40.70;;;;;;4998353;28;21789;-69
2023/10/16 14:08:30;;;;;;;1.40;1.30;;;22.80;40.80;;;;;;4989225;28;20219;-69
2023/10/16 14:11:00;;;;;;;1.40;1.30;;;22.80;40.70;;;;;;4980156;28;20461;-61
2023/10/16 14:13:32;;;;;;;1.40;1.30;;;22.80;40.70;;;;;;4999895;28;20467;-62
2023/10/16 14:16:08;;;;;;;1.40;1.30;;;22.80;40.90;;;;;;4988411;28;20493;-68
2023/10/16 14:18:33;;;;;;;1.60;1.50;;;22.80;40.80;;;;;;4983248;28;20473;-65
2023/10/16 14:20:59;;;;;;;1.60;1.50;;;22.80;40.80;;;;;;4994083;28;20500;-65
2023/10/16 14:23:28;;;;;;;1.40;1.30;;;22.80;40.80;;;;;;4993614;28;20268;-67
2023/10/16 14:25:58;;;;;;;1.60;1.50;;;22.80;40.80;;;;;;4998591;28;20310;-63
2023/10/16 14:28:28;;;;;;;1.40;1.30;;;22.80;40.80;;;;;;4995171;28;20456;-64
2023/10/16 14:31:02;;;;;;;1.50;1.40;;;22.80;40.80;;;;;;4997445;28;20560;-61
2023/10/16 14:33:30;;;;;;;1.40;1.30;;;22.80;40.80;;;;;;4984807;28;20487;-64
2023/10/16 14:36:02;;;;;;;1.63;1.53;;;22.80;40.90;;;;;;4989934;28;20467;-63
2023/10/16 14:38:28;;;;;;;1.30;1.20;;;22.80;40.90;;;;;;4999643;28;20516;-63
2023/10/16 14:40:55;;;;;;;1.33;1.23;;;22.80;40.90;;;;;;4995711;28;20988;-67
2023/10/16 14:43:22;;;;;;;1.43;1.33;;;22.80;40.90;;;;;;5008193;28;20468;-61
2023/10/16 14:45:48;;;;;;;1.43;1.33;;;22.80;40.90;;;;;;5005573;28;20558;-65
2023/10/16 14:48:15;;;;;;;1.70;1.60;;;22.80;40.90;;;;;;4987976;28;21282;-61
2023/10/16 14:50:41;;;;;;;1.40;1.30;;;22.80;40.90;;;;;;4996668;28;20232;-63
2023/10/16 14:53:07;;;;;;;1.40;1.30;;;22.80;40.90;;;;;;4990182;28;20518;-63
2023/10/16 14:55:35;;;;;;;1.40;1.30;;;22.80;40.90;;;;;;4995485;28;20522;-61